Time;durP1;ratioP1;P1;durP2;ratioP2;P2;SDS_P1;SDS_P2;PMS_P1;PMS_P2;Temp;Humidity;BMP_temperature;BMP_pressure;BME280_temperature;BME280_humidity;BME280_pressure;Samples;Min_cycle;Max_cycle;Signal;HPM_P1;HPM_P2
2021/05/17 00:02:08;;;;;;;4.17;2.80;;;9.20;99.90;;;;;;4977734;28;20185;-71
2021/05/17 00:04:36;;;;;;;3.10;2.13;;;9.20;99.90;;;;;;4961133;28;20212;-71
2021/05/17 00:07:03;;;;;;;3.60;2.60;;;9.20;99.90;;;;;;4961848;28;20225;-71
2021/05/17 00:09:29;;;;;;;4.73;2.93;;;9.20;99.90;;;;;;4977273;28;20182;-71
2021/05/17 00:11:55;;;;;;;4.23;2.93;;;9.20;99.90;;;;;;4976938;28;20183;-71
2021/05/17 00:14:21;;;;;;;5.57;2.93;;;9.10;99.90;;;;;;4994180;28;20237;-71
2021/05/17 00:16:46;;;;;;;4.33;2.80;;;9.10;99.90;;;;;;4977167;28;20317;-71
2021/05/17 00:19:12;;;;;;;4.07;2.97;;;9.00;99.90;;;;;;4977222;28;20180;-71
2021/05/17 00:21:38;;;;;;;4.83;2.70;;;9.10;99.90;;;;;;4993156;28;20185;-71
2021/05/17 00:24:04;;;;;;;3.87;3.00;;;9.10;99.90;;;;;;4976804;28;20182;-71
2021/05/17 00:26:30;;;;;;;5.23;3.47;;;9.00;99.90;;;;;;4994322;28;20186;-71
2021/05/17 00:28:56;;;;;;;4.70;2.83;;;9.10;99.90;;;;;;4960624;28;20665;-71
2021/05/17 00:31:21;;;;;;;4.50;2.97;;;9.10;99.90;;;;;;4977327;28;20208;-71
2021/05/17 00:33:47;;;;;;;4.53;3.03;;;9.00;99.90;;;;;;4992988;28;20235;-71
2021/05/17 00:36:13;;;;;;;3.90;2.77;;;9.00;99.90;;;;;;4992675;28;20289;-71
2021/05/17 00:38:38;;;;;;;4.10;3.00;;;8.90;99.90;;;;;;4976673;28;20565;-71
2021/05/17 00:41:04;;;;;;;4.20;3.00;;;9.00;99.90;;;;;;4976995;28;20172;-71
2021/05/17 00:43:35;;;;;;;5.10;3.07;;;9.10;99.90;;;;;;4976579;28;20188;-71
2021/05/17 00:46:00;;;;;;;5.10;3.10;;;9.10;99.90;;;;;;4977748;28;20182;-71
2021/05/17 00:48:26;;;;;;;4.20;3.10;;;9.10;99.90;;;;;;4976671;28;20212;-71
2021/05/17 00:50:52;;;;;;;5.50;3.30;;;9.00;99.90;;;;;;4992659;28;20174;-71
2021/05/17 00:53:18;;;;;;;5.17;3.10;;;9.00;99.90;;;;;;4976685;28;20304;-71
2021/05/17 00:55:44;;;;;;;5.07;3.03;;;9.00;99.90;;;;;;4992658;28;20210;-71
2021/05/17 00:58:09;;;;;;;3.90;2.87;;;9.00;99.90;;;;;;4992529;28;20658;-71
2021/05/17 01:00:35;;;;;;;6.80;3.40;;;9.00;99.90;;;;;;4993551;28;20189;-71
2021/05/17 01:03:01;;;;;;;4.13;3.07;;;9.00;99.90;;;;;;4993747;28;20532;-71
2021/05/17 01:05:26;;;;;;;4.67;2.80;;;9.00;99.90;;;;;;4976473;28;20204;-71
2021/05/17 01:07:53;;;;;;;5.77;3.07;;;9.00;99.90;;;;;;4991995;28;20295;-71
2021/05/17 01:10:20;;;;;;;4.43;3.30;;;9.10;99.90;;;;;;4992690;28;20178;-70
2021/05/17 01:12:46;;;;;;;4.83;3.20;;;9.20;99.90;;;;;;4976382;28;20177;-71
2021/05/17 01:15:13;;;;;;;5.00;2.90;;;9.30;99.90;;;;;;4992848;28;20184;-71
2021/05/17 01:17:39;;;;;;;5.10;3.37;;;9.30;99.90;;;;;;4976129;28;20692;-71
2021/05/17 01:20:08;;;;;;;4.20;2.90;;;9.30;99.90;;;;;;4960015;28;20399;-71
2021/05/17 01:25:23;;;;;;;4.27;3.20;;;9.30;99.90;;;;;;4993350;28;20175;-71
2021/05/17 01:27:48;;;;;;;5.40;3.30;;;9.30;99.90;;;;;;4992283;28;20208;-71
2021/05/17 01:30:16;;;;;;;4.83;3.30;;;9.30;99.90;;;;;;4960469;28;20188;-71
2021/05/17 01:32:42;;;;;;;4.73;3.07;;;9.30;99.90;;;;;;4992114;28;20292;-71
2021/05/17 01:35:08;;;;;;;4.93;3.43;;;9.30;99.90;;;;;;4976242;28;20207;-71
2021/05/17 01:37:34;;;;;;;6.03;3.53;;;9.30;99.90;;;;;;4976075;28;20222;-71
2021/05/17 01:40:00;;;;;;;4.03;3.10;;;9.40;99.90;;;;;;4976296;28;20182;-71
2021/05/17 01:42:26;;;;;;;4.67;2.93;;;9.40;99.90;;;;;;4992220;28;20307;-71
2021/05/17 01:44:53;;;;;;;4.87;3.23;;;9.30;99.90;;;;;;4976344;28;20215;-71
2021/05/17 01:47:18;;;;;;;6.07;3.40;;;9.30;99.90;;;;;;4975973;28;20202;-71
2021/05/17 01:49:44;;;;;;;4.40;3.23;;;9.30;99.90;;;;;;4976412;28;20182;-71
2021/05/17 01:52:10;;;;;;;4.77;3.13;;;9.30;99.90;;;;;;4976166;28;20177;-71
2021/05/17 01:54:35;;;;;;;4.77;2.93;;;9.40;99.90;;;;;;4959887;28;20320;-71
2021/05/17 01:57:01;;;;;;;5.00;3.27;;;9.40;99.90;;;;;;4976196;28;20723;-71
2021/05/17 01:59:30;;;;;;;4.90;3.60;;;9.40;99.90;;;;;;4975703;28;20550;-71
2021/05/17 02:01:56;;;;;;;4.13;2.93;;;9.40;99.90;;;;;;4960341;28;20178;-71
2021/05/17 02:04:22;;;;;;;5.33;3.27;;;9.40;99.90;;;;;;4992189;28;20544;-71
2021/05/17 02:06:47;;;;;;;4.20;2.83;;;9.40;99.90;;;;;;4975225;28;20203;-71
2021/05/17 02:09:13;;;;;;;4.97;2.73;;;9.40;99.90;;;;;;5055189;23;20234;-79
2021/05/17 02:11:39;;;;;;;4.30;2.87;;;9.40;99.90;;;;;;5022172;28;20234;-80
2021/05/17 02:14:04;;;;;;;3.63;2.87;;;9.40;99.90;;;;;;5039261;28;20236;-79
2021/05/17 02:16:30;;;;;;;5.10;2.87;;;9.50;99.90;;;;;;5022870;28;20250;-80
2021/05/17 02:18:56;;;;;;;4.73;3.07;;;9.50;99.90;;;;;;5022654;28;20169;-80
2021/05/17 02:21:22;;;;;;;4.03;2.97;;;9.50;99.90;;;;;;5038759;28;20170;-79
2021/05/17 02:23:47;;;;;;;3.93;2.83;;;9.50;99.90;;;;;;5037856;28;20572;-80
2021/05/17 02:26:13;;;;;;;5.37;3.43;;;9.50;99.90;;;;;;5022719;28;20245;-79
2021/05/17 02:28:40;;;;;;;4.10;2.83;;;9.60;99.90;;;;;;5021836;28;20183;-80
2021/05/17 02:31:06;;;;;;;4.30;3.27;;;9.60;99.90;;;;;;5022538;28;20647;-80
2021/05/17 02:33:32;;;;;;;3.60;2.87;;;9.60;99.90;;;;;;5039187;28;20234;-80
2021/05/17 02:35:57;;;;;;;6.63;3.57;;;9.70;99.90;;;;;;5038183;28;20180;-79
2021/05/17 02:38:23;;;;;;;4.97;2.93;;;9.70;99.90;;;;;;5024035;28;20257;-80
2021/05/17 02:40:52;;;;;;;5.03;2.90;;;9.70;99.90;;;;;;5025489;28;20202;-79
2021/05/17 02:43:20;;;;;;;5.50;3.30;;;9.90;99.90;;;;;;5027032;28;20176;-80
2021/05/17 02:45:46;;;;;;;3.97;2.83;;;9.80;99.90;;;;;;5043151;28;20177;-80
2021/05/17 02:48:12;;;;;;;4.60;3.20;;;9.80;99.90;;;;;;5042349;28;20179;-81
2021/05/17 02:50:45;;;;;;;5.37;3.40;;;9.80;99.90;;;;;;5026136;28;20182;-80
2021/05/17 02:53:49;;;;;;;4.77;3.23;;;10.00;99.90;;;;;;5026798;28;20167;-81
2021/05/17 02:56:16;;;;;;;4.70;2.60;;;9.90;99.90;;;;;;5010448;28;20227;-81
2021/05/17 02:58:43;;;;;;;4.83;3.00;;;10.00;99.90;;;;;;5043868;28;20158;-80
2021/05/17 03:01:10;;;;;;;4.77;3.30;;;9.90;99.90;;;;;;5027661;28;20240;-81
2021/05/17 03:03:48;;;;;;;4.60;3.00;;;9.90;99.90;;;;;;5027115;28;20180;-80
2021/05/17 03:06:17;;;;;;;5.07;3.20;;;9.90;99.90;;;;;;5060459;28;20180;-81
2021/05/17 03:08:50;;;;;;;4.43;2.77;;;10.00;99.90;;;;;;5041014;28;20658;-81
2021/05/17 03:11:15;;;;;;;4.10;3.03;;;10.00;99.90;;;;;;5059552;28;20169;-80
2021/05/17 03:13:42;;;;;;;4.37;3.07;;;9.80;99.90;;;;;;5027025;28;20200;-81
2021/05/17 03:16:08;;;;;;;6.03;3.10;;;9.90;99.90;;;;;;5027287;28;20215;-80
2021/05/17 03:18:34;;;;;;;3.53;2.97;;;9.80;99.90;;;;;;5041602;28;20179;-81
2021/05/17 03:20:59;;;;;;;5.00;3.33;;;9.90;99.90;;;;;;5041911;28;20235;-82
2021/05/17 03:23:25;;;;;;;4.33;3.00;;;9.90;99.90;;;;;;5043133;28;20190;-82
2021/05/17 03:25:50;;;;;;;5.80;3.23;;;9.80;99.90;;;;;;5026247;28;20660;-80
2021/05/17 03:28:16;;;;;;;4.40;2.93;;;9.80;99.90;;;;;;5043092;28;20184;-80
2021/05/17 03:30:41;;;;;;;5.47;3.33;;;9.80;99.90;;;;;;5026316;28;20187;-81
2021/05/17 03:33:07;;;;;;;4.47;3.23;;;9.80;99.90;;;;;;5025591;28;20605;-81
2021/05/17 03:35:32;;;;;;;6.20;3.77;;;9.80;99.90;;;;;;5025890;28;20196;-81
2021/05/17 03:37:58;;;;;;;4.27;2.90;;;9.80;99.90;;;;;;5042046;28;20199;-80
2021/05/17 03:40:24;;;;;;;4.80;2.93;;;9.90;99.90;;;;;;5042878;28;20178;-81
2021/05/17 03:42:49;;;;;;;5.07;3.17;;;9.80;99.90;;;;;;5041926;28;20271;-82
2021/05/17 03:45:15;;;;;;;4.60;3.00;;;9.80;99.90;;;;;;5041567;28;20185;-82
2021/05/17 03:47:41;;;;;;;5.33;2.97;;;9.90;99.90;;;;;;5042494;28;20180;-81
2021/05/17 03:50:08;;;;;;;3.43;3.10;;;9.80;99.90;;;;;;5041702;28;20206;-80
2021/05/17 03:52:33;;;;;;;4.67;3.03;;;9.80;99.90;;;;;;5024825;28;20646;-82
2021/05/17 03:54:59;;;;;;;5.30;3.20;;;9.80;99.90;;;;;;5023705;28;20208;-81
2021/05/17 03:57:25;;;;;;;4.00;3.23;;;9.80;99.90;;;;;;5039976;28;20571;-81
2021/05/17 03:59:50;;;;;;;4.03;3.03;;;9.80;99.90;;;;;;5031858;28;20181;-82
2021/05/17 04:02:18;;;;;;;3.73;3.00;;;9.80;99.90;;;;;;5034001;28;20179;-82
2021/05/17 04:05:21;;;;;;;4.07;2.90;;;9.80;99.90;;;;;;5025343;28;20195;-82
2021/05/17 04:15:26;;;;;;;4.90;2.77;;;9.80;99.90;;;;;;5021893;28;20691;-82
2021/05/17 04:17:51;;;;;;;4.60;2.60;;;9.70;99.90;;;;;;5017113;28;20203;-82
2021/05/17 04:20:17;;;;;;;5.07;2.57;;;9.70;99.90;;;;;;5018987;28;20173;-80
2021/05/17 04:22:42;;;;;;;3.43;2.60;;;9.70;99.90;;;;;;5019694;28;20176;-80
2021/05/17 04:25:09;;;;;;;4.57;2.73;;;9.80;99.90;;;;;;5019592;28;20232;-81
2021/05/17 04:27:34;;;;;;;3.47;2.60;;;9.80;99.90;;;;;;5019511;28;20223;-83
2021/05/17 04:30:00;;;;;;;4.13;2.57;;;9.90;99.90;;;;;;5022411;28;20183;-82
2021/05/17 04:32:26;;;;;;;4.07;2.10;;;9.90;99.90;;;;;;5024814;28;20179;-81
2021/05/17 04:34:51;;;;;;;4.47;2.20;;;9.90;99.90;;;;;;5025120;28;20207;-81
2021/05/17 04:37:17;;;;;;;4.47;2.57;;;10.10;99.90;;;;;;5023592;28;20214;-81
2021/05/17 04:39:42;;;;;;;3.63;2.43;;;10.00;99.90;;;;;;5021046;28;20171;-81
2021/05/17 04:42:08;;;;;;;2.87;2.30;;;10.10;99.90;;;;;;5020965;28;20237;-81
2021/05/17 04:44:33;;;;;;;5.63;2.30;;;10.00;99.90;;;;;;5004361;28;20210;-82
2021/05/17 04:46:59;;;;;;;4.53;2.33;;;10.00;99.90;;;;;;5021667;28;20184;-82
2021/05/17 04:49:24;;;;;;;3.33;2.50;;;10.00;99.90;;;;;;5005303;28;20184;-81
2021/05/17 04:51:50;;;;;;;4.73;2.93;;;10.10;99.90;;;;;;5020406;28;20187;-82
2021/05/17 04:54:15;;;;;;;3.03;2.07;;;10.00;99.90;;;;;;5019693;28;20262;-82
2021/05/17 04:56:41;;;;;;;2.80;2.00;;;10.10;99.90;;;;;;5019265;28;20211;-82
2021/05/17 04:59:07;;;;;;;2.80;2.00;;;10.10;99.90;;;;;;5010121;28;20185;-81
2021/05/17 05:01:32;;;;;;;3.20;1.93;;;10.10;99.90;;;;;;5039193;28;20207;-82
2021/05/17 05:03:58;;;;;;;2.87;2.07;;;10.10;99.90;;;;;;5039765;28;20598;-81
2021/05/17 05:06:23;;;;;;;2.83;2.10;;;10.20;99.90;;;;;;5040623;28;20193;-82
2021/05/17 05:08:49;;;;;;;3.10;2.20;;;10.30;99.90;;;;;;5040690;28;20265;-82
2021/05/17 05:11:14;;;;;;;2.87;2.00;;;10.50;99.90;;;;;;5057250;28;20315;-81
2021/05/17 05:13:40;;;;;;;2.07;1.50;;;10.60;99.90;;;;;;5056243;28;20219;-82
2021/05/17 05:16:05;;;;;;;2.13;1.43;;;10.60;99.90;;;;;;5036112;28;20203;-83
2021/05/17 05:18:31;;;;;;;4.80;1.70;;;10.50;99.90;;;;;;5049502;28;20207;-82
2021/05/17 05:20:56;;;;;;;2.30;1.47;;;10.60;99.90;;;;;;5011767;28;20554;-82
2021/05/17 05:23:22;;;;;;;2.50;1.67;;;10.50;99.90;;;;;;5027927;28;20550;-83
2021/05/17 05:28:26;;;;;;;2.53;1.60;;;10.60;99.90;;;;;;5035869;28;20238;-83
2021/05/17 05:30:58;;;;;;;1.70;1.40;;;10.60;99.90;;;;;;5035331;28;20176;-82
2021/05/17 05:33:24;;;;;;;1.70;1.30;;;10.70;99.90;;;;;;5022226;28;20645;-83
2021/05/17 05:35:50;;;;;;;2.33;1.43;;;10.90;99.90;;;;;;5035935;28;20240;-82
2021/05/17 05:38:16;;;;;;;1.97;1.40;;;10.80;99.90;;;;;;5036714;28;20184;-78
2021/05/17 05:40:41;;;;;;;2.03;1.30;;;10.80;99.90;;;;;;5038918;28;20234;-78
2021/05/17 05:43:07;;;;;;;2.17;1.73;;;10.80;99.90;;;;;;5037312;28;20256;-80
2021/05/17 05:45:34;;;;;;;2.53;1.70;;;10.80;99.90;;;;;;5022275;28;20601;-82
2021/05/17 05:48:00;;;;;;;2.17;1.60;;;11.00;99.90;;;;;;5028939;28;20180;-80
2021/05/17 05:50:25;;;;;;;3.33;1.60;;;11.10;99.90;;;;;;5036251;28;20189;-79
2021/05/17 05:52:51;;;;;;;1.90;1.40;;;11.00;99.90;;;;;;5035299;28;20176;-80
2021/05/17 05:55:19;;;;;;;3.03;1.60;;;11.20;99.90;;;;;;5015452;28;20200;-80
2021/05/17 05:57:46;;;;;;;2.17;1.57;;;11.20;99.90;;;;;;5053440;28;20252;-79
2021/05/17 06:00:14;;;;;;;1.87;1.20;;;11.20;99.90;;;;;;5049432;28;20191;-79
2021/05/17 06:02:40;;;;;;;1.40;1.17;;;11.20;99.90;;;;;;5022734;28;20203;-80
2021/05/17 06:05:06;;;;;;;1.30;1.00;;;11.20;99.90;;;;;;5016776;28;20278;-81
2021/05/17 06:07:32;;;;;;;3.60;1.40;;;11.20;99.90;;;;;;5030040;28;20206;-79
2021/05/17 06:09:59;;;;;;;1.90;1.30;;;11.20;99.90;;;;;;5009742;28;20192;-80
2021/05/17 06:12:27;;;;;;;2.37;1.40;;;11.10;99.90;;;;;;5019865;28;20227;-79
2021/05/17 06:14:59;;;;;;;2.90;1.20;;;11.20;99.90;;;;;;5054006;28;20208;-79
2021/05/17 06:17:25;;;;;;;1.80;1.20;;;11.20;99.90;;;;;;5036402;28;20247;-79
2021/05/17 06:19:51;;;;;;;1.80;1.33;;;11.30;99.90;;;;;;5021305;28;20182;-79
2021/05/17 06:22:19;;;;;;;2.67;0.97;;;11.40;99.90;;;;;;5055039;28;20190;-78
2021/05/17 06:24:45;;;;;;;1.60;1.50;;;11.50;99.90;;;;;;5032443;28;20204;-79
2021/05/17 06:27:11;;;;;;;2.80;1.50;;;11.70;99.90;;;;;;5045896;28;20201;-79
2021/05/17 06:29:38;;;;;;;1.97;1.30;;;12.00;99.90;;;;;;5037648;28;20185;-79
2021/05/17 06:32:03;;;;;;;3.33;1.50;;;12.00;99.90;;;;;;5007315;28;20193;-79
2021/05/17 06:34:29;;;;;;;2.93;1.47;;;11.90;99.90;;;;;;5047170;28;20205;-78
2021/05/17 06:36:55;;;;;;;2.23;1.20;;;11.90;99.90;;;;;;5054130;28;20622;-79
2021/05/17 06:39:21;;;;;;;2.10;1.27;;;12.00;99.90;;;;;;5054258;28;20168;-79
2021/05/17 06:41:47;;;;;;;4.33;1.50;;;12.10;99.90;;;;;;5037773;28;20618;-78
2021/05/17 06:44:12;;;;;;;2.07;1.37;;;12.40;99.90;;;;;;5053454;28;20250;-80
2021/05/17 06:46:38;;;;;;;2.20;1.37;;;12.60;99.90;;;;;;5021140;28;20191;-78
2021/05/17 06:49:06;;;;;;;1.20;1.00;;;12.70;99.90;;;;;;5021680;28;20189;-78
2021/05/17 06:51:32;;;;;;;3.40;1.20;;;12.70;99.90;;;;;;5054905;28;20651;-78
2021/05/17 06:54:00;;;;;;;1.87;1.40;;;12.80;99.90;;;;;;5038199;28;20304;-79
2021/05/17 06:56:30;;;;;;;2.40;1.50;;;12.70;99.90;;;;;;5032473;28;20542;-78
2021/05/17 07:01:26;;;;;;;1.90;1.60;;;12.70;99.90;;;;;;5018996;28;20261;-79
2021/05/17 07:03:52;;;;;;;2.77;1.60;;;12.70;99.90;;;;;;5018385;28;20689;-80
2021/05/17 07:06:20;;;;;;;2.77;1.90;;;12.50;99.90;;;;;;5018531;28;20186;-79
2021/05/17 07:11:35;;;;;;;2.17;1.67;;;12.20;99.90;;;;;;5054642;28;20761;-79
2021/05/17 07:14:02;;;;;;;3.30;1.80;;;12.10;99.90;;;;;;5069885;28;20236;-79
2021/05/17 07:16:29;;;;;;;2.70;1.90;;;12.10;99.90;;;;;;5071120;28;20289;-79
2021/05/17 07:18:55;;;;;;;2.47;2.00;;;12.30;99.90;;;;;;5037756;28;20178;-79
2021/05/17 07:23:46;;;;;;;1.33;1.23;;;12.50;99.90;;;;;;5053906;28;20199;-79
2021/05/17 07:26:15;;;;;;;2.40;1.67;;;12.50;99.90;;;;;;5037544;28;20173;-79
2021/05/17 07:28:43;;;;;;;1.67;1.40;;;12.30;99.90;;;;;;5053685;28;20174;-79
2021/05/17 07:31:09;;;;;;;2.67;1.80;;;12.30;99.90;;;;;;5053926;28;20649;-78
2021/05/17 07:33:37;;;;;;;2.93;2.07;;;12.30;99.90;;;;;;5037630;28;20272;-79
2021/05/17 07:36:04;;;;;;;2.50;2.30;;;12.30;99.90;;;;;;5025298;28;20240;-78
2021/05/17 07:38:31;;;;;;;2.03;1.60;;;12.40;99.90;;;;;;5037432;28;20203;-79
2021/05/17 07:40:58;;;;;;;3.77;1.73;;;12.50;99.90;;;;;;5036825;28;20661;-79
2021/05/17 07:43:25;;;;;;;2.83;2.00;;;12.60;99.90;;;;;;5036412;28;20280;-78
2021/05/17 07:45:51;;;;;;;2.20;1.80;;;12.60;99.90;;;;;;5053746;28;20169;-78
2021/05/17 07:48:16;;;;;;;2.47;2.00;;;12.70;99.90;;;;;;5020594;28;20193;-78
2021/05/17 07:50:42;;;;;;;3.70;2.30;;;12.80;99.90;;;;;;5036007;28;20192;-78
2021/05/17 07:53:08;;;;;;;3.63;1.97;;;12.70;99.90;;;;;;5036275;28;20651;-78
2021/05/17 07:55:33;;;;;;;3.43;1.87;;;12.70;99.90;;;;;;5035889;28;20201;-79
2021/05/17 07:57:59;;;;;;;2.53;2.10;;;12.80;99.90;;;;;;5036426;28;20577;-79
2021/05/17 08:00:24;;;;;;;3.83;2.20;;;13.00;99.90;;;;;;5052620;28;20181;-79
2021/05/17 08:02:50;;;;;;;5.50;1.90;;;13.00;99.90;;;;;;5049085;23;20226;-74
2021/05/17 08:05:17;;;;;;;1.90;1.60;;;13.10;99.90;;;;;;5015093;28;20193;-74
2021/05/17 08:10:12;;;;;;;2.63;2.20;;;13.60;99.90;;;;;;5034888;28;20223;-82
2021/05/17 08:12:38;;;;;;;2.27;1.73;;;14.20;99.90;;;;;;5018387;28;20266;-85
2021/05/17 08:15:04;;;;;;;2.13;1.80;;;14.60;99.90;;;;;;5002697;28;20245;-82
2021/05/17 08:17:30;;;;;;;2.97;1.70;;;14.60;99.90;;;;;;4999613;28;20262;-82
2021/05/17 08:19:56;;;;;;;2.90;2.10;;;14.50;99.90;;;;;;4999142;28;20736;-82
2021/05/17 08:22:23;;;;;;;3.93;2.10;;;14.50;99.90;;;;;;5014960;28;20194;-83
2021/05/17 08:24:53;;;;;;;3.00;2.10;;;14.50;99.90;;;;;;4999054;28;20267;-84
2021/05/17 08:27:18;;;;;;;2.97;1.90;;;14.60;99.90;;;;;;5001766;28;20279;-85
2021/05/17 08:29:44;;;;;;;2.10;1.77;;;14.50;99.90;;;;;;4999763;28;20222;-82
2021/05/17 08:32:10;;;;;;;2.00;1.80;;;14.30;99.90;;;;;;4992463;28;20596;-82
2021/05/17 08:34:36;;;;;;;2.17;1.70;;;14.10;99.90;;;;;;4982915;28;20230;-82
2021/05/17 08:37:02;;;;;;;5.17;1.50;;;14.30;99.90;;;;;;4983340;28;20241;-82
2021/05/17 08:39:28;;;;;;;3.17;1.57;;;14.20;99.90;;;;;;5015382;28;20249;-83
2021/05/17 08:41:56;;;;;;;3.63;1.67;;;13.90;99.90;;;;;;4998310;28;20211;-84
2021/05/17 08:44:23;;;;;;;3.63;2.00;;;13.80;99.90;;;;;;5014911;28;20202;-83
2021/05/17 08:46:48;;;;;;;1.87;1.57;;;13.60;99.90;;;;;;4998970;28;20556;-82
2021/05/17 08:49:15;;;;;;;1.90;1.80;;;13.50;99.90;;;;;;4997398;28;20179;-83
2021/05/17 08:51:40;;;;;;;3.47;1.80;;;13.40;99.90;;;;;;4999166;28;20178;-82
2021/05/17 08:54:08;;;;;;;3.00;2.40;;;13.40;99.90;;;;;;5032181;28;20345;-82
2021/05/17 08:56:34;;;;;;;2.27;2.07;;;13.50;99.90;;;;;;4998222;28;20239;-83
2021/05/17 08:59:04;;;;;;;2.90;2.23;;;13.50;99.90;;;;;;5014906;28;20188;-82
2021/05/17 09:01:31;;;;;;;2.43;1.97;;;13.40;99.90;;;;;;5015434;28;20237;-81
2021/05/17 09:03:59;;;;;;;2.60;2.40;;;13.40;99.90;;;;;;5014863;28;20199;-82
2021/05/17 09:06:46;;;;;;;2.27;1.77;;;13.40;99.90;;;;;;5031766;28;20179;-83
2021/05/17 09:09:25;;;;;;;3.23;2.00;;;13.30;99.90;;;;;;4998483;28;20229;-83
2021/05/17 09:11:54;;;;;;;3.80;2.17;;;13.30;99.90;;;;;;5015739;28;20556;-83
2021/05/17 09:14:21;;;;;;;2.03;1.83;;;13.50;99.90;;;;;;4999055;28;20199;-83
2021/05/17 09:17:02;;;;;;;4.10;1.93;;;13.60;99.90;;;;;;4998905;28;20646;-82
2021/05/17 09:19:32;;;;;;;3.77;1.77;;;13.80;99.90;;;;;;4998301;28;20571;-85
2021/05/17 09:22:09;;;;;;;3.03;1.80;;;13.90;99.90;;;;;;4998482;28;20670;-83
2021/05/17 09:24:52;;;;;;;1.53;1.40;;;14.30;99.90;;;;;;5014695;28;20206;-82
2021/05/17 09:27:25;;;;;;;2.20;1.33;;;14.60;99.90;;;;;;5014299;28;20186;-84
2021/05/17 09:29:52;;;;;;;3.67;1.43;;;14.80;99.90;;;;;;5014075;28;20187;-81
2021/05/17 09:32:20;;;;;;;1.47;1.13;;;14.90;99.90;;;;;;5014308;28;20720;-81
2021/05/17 09:34:57;;;;;;;2.27;1.20;;;15.10;99.90;;;;;;5014112;28;20223;-81
2021/05/17 09:37:22;;;;;;;1.20;1.10;;;15.30;99.90;;;;;;4997535;28;20203;-84
2021/05/17 09:39:50;;;;;;;3.33;1.00;;;15.50;99.90;;;;;;4997309;28;20182;-80
2021/05/17 09:42:20;;;;;;;1.50;1.00;;;15.70;99.90;;;;;;4997824;28;20190;-82
2021/05/17 09:44:46;;;;;;;0.80;0.80;;;15.60;99.90;;;;;;4997193;28;20600;-81
2021/05/17 09:47:20;;;;;;;1.23;0.80;;;15.70;99.90;;;;;;5016904;28;20528;-80
2021/05/17 09:50:04;;;;;;;2.27;1.00;;;15.70;99.90;;;;;;5001907;28;20191;-80
2021/05/17 09:52:36;;;;;;;0.97;0.90;;;15.80;99.90;;;;;;5017467;28;20176;-80
2021/05/17 09:55:08;;;;;;;1.17;0.90;;;15.90;99.90;;;;;;5018164;28;20206;-81
2021/05/17 09:57:47;;;;;;;2.10;0.70;;;16.10;99.90;;;;;;5018121;28;20213;-82
2021/05/17 10:00:19;;;;;;;1.87;0.70;;;16.30;99.90;;;;;;5018388;28;20182;-82
2021/05/17 10:02:45;;;;;;;3.30;0.90;;;16.10;99.90;;;;;;5003021;28;20176;-82
2021/05/17 10:05:23;;;;;;;2.07;0.97;;;16.30;99.90;;;;;;5034447;28;20210;-84
2021/05/17 10:07:56;;;;;;;2.13;0.93;;;16.30;99.90;;;;;;5028974;28;20250;-82
2021/05/17 10:10:23;;;;;;;2.00;0.80;;;16.40;99.90;;;;;;4985145;28;20258;-81
2021/05/17 10:12:50;;;;;;;1.93;0.80;;;16.60;99.90;;;;;;5002639;28;20660;-84
2021/05/17 10:15:17;;;;;;;2.30;0.80;;;16.70;99.90;;;;;;5004745;28;20425;-83
2021/05/17 10:17:43;;;;;;;1.10;0.60;;;16.70;99.90;;;;;;5004460;28;20206;-80
2021/05/17 10:20:13;;;;;;;1.17;0.67;;;16.80;99.90;;;;;;5036133;28;20255;-84
2021/05/17 10:22:45;;;;;;;0.97;0.73;;;16.90;99.90;;;;;;5004903;28;20228;-82
2021/05/17 10:25:38;;;;;;;0.70;0.57;;;16.60;99.90;;;;;;5011616;28;20203;-80
2021/05/17 10:28:13;;;;;;;0.53;0.40;;;16.20;99.90;;;;;;5022903;28;20253;-82
2021/05/17 10:30:39;;;;;;;0.50;0.50;;;15.90;99.90;;;;;;5001489;28;20189;-81
2021/05/17 10:33:06;;;;;;;1.17;0.57;;;15.80;99.90;;;;;;5007995;28;20182;-81
2021/05/17 10:35:38;;;;;;;0.77;0.50;;;15.60;99.90;;;;;;4986017;28;20227;-83
2021/05/17 10:38:27;;;;;;;1.07;0.60;;;15.50;99.90;;;;;;5026295;28;20199;-83
2021/05/17 10:42:16;;;;;;;1.23;0.60;;;15.30;99.90;;;;;;5015955;28;20176;-81
2021/05/17 10:46:50;;;;;;;0.93;0.73;;;14.90;99.90;;;;;;5022689;28;20193;-82
2021/05/17 10:49:22;;;;;;;1.80;0.87;;;14.80;99.90;;;;;;5020728;28;20215;-81
2021/05/17 10:51:49;;;;;;;0.87;0.67;;;15.20;99.90;;;;;;5007539;28;20593;-82
2021/05/17 10:54:28;;;;;;;2.10;0.80;;;15.50;99.90;;;;;;5000985;28;20213;-81
2021/05/17 10:57:04;;;;;;;1.43;0.80;;;15.50;99.90;;;;;;5008325;28;20807;-81
2021/05/17 11:02:28;;;;;;;0.23;0.20;;;15.40;99.90;;;;;;5016483;28;20202;-82
2021/05/17 11:04:55;;;;;;;0.40;0.30;;;15.40;99.90;;;;;;4999804;28;20238;-81
2021/05/17 11:07:26;;;;;;;1.10;0.60;;;15.10;99.90;;;;;;5021914;28;20645;-83
2021/05/17 11:10:00;;;;;;;0.30;0.30;;;15.10;99.90;;;;;;5001739;28;20238;-80
2021/05/17 11:12:25;;;;;;;1.27;0.50;;;15.20;99.90;;;;;;5017993;28;20176;-83
2021/05/17 11:15:05;;;;;;;0.60;0.50;;;15.50;99.90;;;;;;5015896;28;20246;-84
2021/05/17 11:17:55;;;;;;;0.40;0.40;;;15.90;99.90;;;;;;4984135;28;20544;-83
2021/05/17 11:20:40;;;;;;;0.30;0.30;;;16.10;99.90;;;;;;4988656;28;20187;-83
2021/05/17 11:23:12;;;;;;;0.30;0.30;;;16.30;99.90;;;;;;5016638;28;20176;-84
2021/05/17 11:25:45;;;;;;;0.40;0.40;;;16.40;99.90;;;;;;4983927;28;20772;-85
2021/05/17 11:28:11;;;;;;;0.80;0.60;;;16.30;99.90;;;;;;4999157;28;20187;-83
2021/05/17 11:30:41;;;;;;;0.77;0.67;;;16.20;99.90;;;;;;4983580;28;20265;-81
2021/05/17 11:33:14;;;;;;;0.60;0.60;;;16.10;99.90;;;;;;5000549;28;20198;-82
2021/05/17 11:36:12;;;;;;;0.80;0.80;;;16.00;99.90;;;;;;5011336;28;20567;-83
2021/05/17 11:39:14;;;;;;;1.83;1.20;;;16.10;99.90;;;;;;4990396;28;20214;-84
2021/05/17 11:41:57;;;;;;;1.13;1.03;;;16.40;99.90;;;;;;5018994;28;20598;-84
2021/05/17 11:44:23;;;;;;;2.23;1.50;;;16.40;99.90;;;;;;5025755;28;20190;-83
2021/05/17 11:47:00;;;;;;;1.40;1.27;;;16.50;99.90;;;;;;5035811;28;20233;-82
2021/05/17 11:49:29;;;;;;;1.40;1.30;;;16.60;99.90;;;;;;5019389;28;20710;-84
2021/05/17 11:51:58;;;;;;;1.43;1.23;;;16.80;99.90;;;;;;5018524;28;20278;-84
2021/05/17 11:54:28;;;;;;;1.43;1.10;;;16.90;99.90;;;;;;4998649;28;20253;-84
2021/05/17 11:56:55;;;;;;;1.63;1.20;;;16.70;99.90;;;;;;4999536;28;20212;-82
2021/05/17 11:59:23;;;;;;;0.97;0.97;;;16.70;99.90;;;;;;4997820;28;20191;-84
2021/05/17 12:01:52;;;;;;;1.17;0.80;;;16.80;99.90;;;;;;5018904;28;20186;-82
2021/05/17 12:04:23;;;;;;;1.00;0.83;;;17.20;99.90;;;;;;4989287;28;20270;-82
2021/05/17 12:06:53;;;;;;;0.70;0.67;;;17.30;99.90;;;;;;4999420;28;20195;-84
2021/05/17 12:09:30;;;;;;;0.93;0.80;;;17.10;99.90;;;;;;4981626;28;20723;-84
2021/05/17 12:11:56;;;;;;;1.80;0.70;;;17.10;99.90;;;;;;4998784;28;20198;-83
2021/05/17 12:14:23;;;;;;;1.53;0.80;;;17.00;99.90;;;;;;4982157;28;20340;-82
2021/05/17 12:16:59;;;;;;;0.60;0.60;;;16.70;99.90;;;;;;4999446;28;20234;-83
2021/05/17 12:19:28;;;;;;;1.53;0.70;;;16.40;99.90;;;;;;4999252;28;20182;-83
2021/05/17 12:21:58;;;;;;;0.23;0.23;;;16.30;99.90;;;;;;5042128;28;20183;-81
2021/05/17 12:24:25;;;;;;;0.73;0.37;;;15.80;99.90;;;;;;4995907;28;20567;-83
2021/05/17 12:26:57;;;;;;;0.40;0.40;;;15.40;99.90;;;;;;5008897;28;20209;-85
2021/05/17 12:29:23;;;;;;;1.67;0.40;;;14.80;99.90;;;;;;5035791;28;20146;-82
2021/05/17 12:31:49;;;;;;;0.33;0.33;;;14.10;99.90;;;;;;5003221;28;20175;-82
2021/05/17 12:34:15;;;;;;;0.47;0.40;;;13.60;99.90;;;;;;5028601;28;20250;-80
2021/05/17 12:36:44;;;;;;;0.50;0.50;;;13.20;99.90;;;;;;5032243;28;20675;-84
2021/05/17 12:39:14;;;;;;;0.47;0.43;;;12.80;99.90;;;;;;5005538;28;20249;-83
2021/05/17 12:41:47;;;;;;;0.70;0.50;;;12.60;99.90;;;;;;5018319;28;20191;-82
2021/05/17 12:44:30;;;;;;;0.83;0.47;;;12.50;99.90;;;;;;5019302;28;20206;-82
2021/05/17 12:47:10;;;;;;;0.50;0.40;;;12.50;99.90;;;;;;5019466;28;20269;-83
2021/05/17 12:49:47;;;;;;;0.50;0.50;;;12.50;99.90;;;;;;5002991;28;20178;-83
2021/05/17 12:52:33;;;;;;;0.50;0.50;;;12.50;99.90;;;;;;5002511;28;20223;-84
2021/05/17 12:55:21;;;;;;;0.87;0.60;;;12.40;99.90;;;;;;5003734;28;20202;-84
2021/05/17 12:57:58;;;;;;;0.70;0.70;;;12.30;99.90;;;;;;5018660;28;20210;-83
2021/05/17 13:00:49;;;;;;;0.80;0.73;;;12.40;99.90;;;;;;5018698;28;20190;-83
2021/05/17 13:03:23;;;;;;;1.53;0.70;;;12.40;99.90;;;;;;5005627;28;20181;-82
2021/05/17 13:06:04;;;;;;;0.90;0.70;;;12.40;99.90;;;;;;5017502;28;20190;-83
2021/05/17 13:08:51;;;;;;;0.73;0.70;;;12.40;99.90;;;;;;5035320;28;20194;-85
2021/05/17 13:11:21;;;;;;;0.60;0.60;;;12.40;99.90;;;;;;5035470;28;20181;-85
2021/05/17 13:14:00;;;;;;;1.00;0.87;;;12.40;99.90;;;;;;5017213;28;20223;-86
2021/05/17 13:16:30;;;;;;;0.73;0.70;;;12.40;99.90;;;;;;5017851;28;20289;-85
2021/05/17 13:19:31;;;;;;;0.97;0.80;;;12.40;99.90;;;;;;5018187;28;20171;-86
2021/05/17 13:30:30;;;;;;;1.03;0.63;;;12.90;99.90;;;;;;5021108;28;20550;-85
2021/05/17 13:32:57;;;;;;;0.90;0.80;;;13.00;99.90;;;;;;5018620;28;20159;-85
2021/05/17 13:35:23;;;;;;;1.37;0.90;;;13.10;99.90;;;;;;5000700;28;20686;-85
2021/05/17 13:37:49;;;;;;;1.33;1.03;;;13.20;99.90;;;;;;5017225;28;20206;-85